createdAt,value
2018-05-09T00:01:44.405Z,2.43
2018-05-09T00:04:11.863Z,2.40
2018-05-09T00:06:39.474Z,2.50
2018-05-09T00:09:07.760Z,2.40
2018-05-09T00:11:36.034Z,2.90
2018-05-09T00:14:04.385Z,2.43
2018-05-09T00:16:31.853Z,2.50
2018-05-09T00:18:59.359Z,2.30
2018-05-09T00:21:26.831Z,2.70
2018-05-09T00:23:54.292Z,3.13
2018-05-09T00:26:21.786Z,2.67
2018-05-09T00:28:50.167Z,3.23
2018-05-09T00:31:18.405Z,2.70
2018-05-09T00:33:45.889Z,2.57
2018-05-09T00:36:14.168Z,3.20
2018-05-09T00:38:42.392Z,2.67
2018-05-09T00:41:09.870Z,2.90
2018-05-09T00:43:37.342Z,3.00
2018-05-09T00:46:04.825Z,2.63
2018-05-09T00:48:32.318Z,2.90
2018-05-09T00:50:59.782Z,2.70
2018-05-09T00:53:27.257Z,3.40
2018-05-09T00:55:54.737Z,3.20
2018-05-09T00:58:23.093Z,2.37
2018-05-09T01:00:50.588Z,2.67
2018-05-09T01:03:18.081Z,2.83
2018-05-09T01:05:45.563Z,2.90
2018-05-09T01:08:13.280Z,3.30
2018-05-09T01:10:40.777Z,3.07
2018-05-09T01:13:08.277Z,2.50
2018-05-09T01:15:36.706Z,2.93
2018-05-09T01:18:04.168Z,2.90
2018-05-09T01:20:31.784Z,2.63
2018-05-09T01:22:59.315Z,3.10
2018-05-09T01:25:27.557Z,2.80
2018-05-09T01:27:55.037Z,2.90
2018-05-09T01:30:23.297Z,3.17
2018-05-09T01:32:50.754Z,3.60
2018-05-09T01:35:18.235Z,3.00
2018-05-09T01:37:46.474Z,3.20
2018-05-09T01:40:14.204Z,3.20
2018-05-09T01:42:48.269Z,3.20
2018-05-09T01:45:21.459Z,2.63
2018-05-09T01:47:49.702Z,2.93
2018-05-09T01:50:17.182Z,3.00
2018-05-09T01:52:44.699Z,2.80
2018-05-09T01:55:12.172Z,3.03
2018-05-09T01:57:39.767Z,3.07
2018-05-09T02:00:08.127Z,3.17
2018-05-09T02:02:35.751Z,3.20
2018-05-09T02:05:03.209Z,3.63
2018-05-09T02:07:30.717Z,3.43
2018-05-09T02:09:58.966Z,3.43
2018-05-09T02:12:26.476Z,3.33
2018-05-09T02:14:54.078Z,3.20
2018-05-09T02:17:21.579Z,3.50
2018-05-09T02:19:49.049Z,3.43
2018-05-09T02:22:16.746Z,3.57
2018-05-09T02:24:44.274Z,3.87
2018-05-09T02:27:11.787Z,4.07
2018-05-09T02:29:40.054Z,3.70
2018-05-09T02:32:07.545Z,3.77
2018-05-09T02:34:35.031Z,3.20
2018-05-09T02:37:02.492Z,3.57
2018-05-09T02:39:29.973Z,4.10
2018-05-09T02:41:57.440Z,3.77
2018-05-09T02:44:25.678Z,3.97
2018-05-09T02:46:53.197Z,3.50
2018-05-09T02:49:20.686Z,3.50
2018-05-09T02:51:49.325Z,3.83
2018-05-09T02:54:17.579Z,4.27
2018-05-09T02:56:45.869Z,3.77
2018-05-09T02:59:14.129Z,3.50
2018-05-09T03:01:41.614Z,4.10
2018-05-09T03:04:09.108Z,3.90
2018-05-09T03:06:36.565Z,3.87
2018-05-09T03:09:04.084Z,4.40
2018-05-09T03:11:31.581Z,4.20
2018-05-09T03:13:59.041Z,3.63
2018-05-09T03:20:19.118Z,4.10
2018-05-09T03:27:30.381Z,4.73
2018-05-09T03:30:08.975Z,4.37
2018-05-09T03:32:44.931Z,3.87
2018-05-09T03:35:18.212Z,4.00
2018-05-09T05:00:14.347Z,5.33
2018-05-09T05:02:41.811Z,4.67
2018-05-09T05:05:09.309Z,5.17
2018-05-09T05:07:36.794Z,6.83
2018-05-09T05:10:04.263Z,5.80
2018-05-09T05:12:31.738Z,5.60
2018-05-09T05:14:59.224Z,6.33
2018-05-09T05:17:27.643Z,7.13
2018-05-09T05:19:55.134Z,7.70
2018-05-09T05:44:29.210Z,5.67
2018-05-09T05:46:56.693Z,6.33
2018-05-09T05:49:24.172Z,6.27
2018-05-09T05:51:51.654Z,6.10
2018-05-09T05:54:19.348Z,6.80
2018-05-09T05:56:46.984Z,8.40
2018-05-09T05:59:15.495Z,6.30
2018-05-09T06:01:43.137Z,7.37
2018-05-09T06:04:10.645Z,6.33
2018-05-09T06:06:38.188Z,6.87
2018-05-09T06:09:05.709Z,6.62
2018-05-09T06:11:33.250Z,5.60
2018-05-09T06:14:01.504Z,5.35
2018-05-09T06:16:28.978Z,5.57
2018-05-09T06:18:57.254Z,5.25
2018-05-09T06:21:25.649Z,5.37
2018-05-09T06:23:53.990Z,4.68
2018-05-09T06:26:21.462Z,4.25
2018-05-09T06:28:49.742Z,6.35
2018-05-09T06:31:18.152Z,6.30
2018-05-09T06:33:45.684Z,6.32
2018-05-09T06:36:15.581Z,5.00
2018-05-09T06:38:43.118Z,4.20
2018-05-09T06:41:10.648Z,5.18
2018-05-09T06:43:38.158Z,6.28
2018-05-09T06:46:05.607Z,5.18
2018-05-09T06:48:33.224Z,5.10
2018-05-09T06:51:00.701Z,5.35
2018-05-09T06:53:28.205Z,4.70
2018-05-09T06:55:55.668Z,4.62
2018-05-09T06:58:23.150Z,3.95
2018-05-09T07:00:50.670Z,5.43
2018-05-09T07:03:18.166Z,5.30
2018-05-09T07:05:45.651Z,4.70
2018-05-09T07:08:13.134Z,4.78
2018-05-09T07:10:47.514Z,4.18
2018-05-09T07:13:15.002Z,4.90
2018-05-09T07:15:43.249Z,4.72
2018-05-09T07:18:10.765Z,4.50
2018-05-09T07:20:38.256Z,4.20
2018-05-09T07:23:07.374Z,4.03
2018-05-09T07:25:35.648Z,4.12
2018-05-09T07:28:03.901Z,3.67
2018-05-09T07:30:31.366Z,4.22
2018-05-09T07:32:58.840Z,3.78
2018-05-09T07:35:27.217Z,3.95
2018-05-09T07:37:54.636Z,4.00
2018-05-09T07:40:22.190Z,3.78
2018-05-09T07:42:49.662Z,3.22
2018-05-09T07:45:17.160Z,3.62
2018-05-09T07:47:44.671Z,3.37
2018-05-09T07:50:12.904Z,3.80
2018-05-09T07:52:40.382Z,4.10
2018-05-09T07:55:07.856Z,3.83
2018-05-09T07:57:35.353Z,3.70
2018-05-09T08:00:03.604Z,4.60
2018-05-09T08:02:31.218Z,3.10
2018-05-09T08:04:58.699Z,3.85
2018-05-09T08:07:26.280Z,3.47
2018-05-09T08:09:53.762Z,3.65
2018-05-09T08:12:21.260Z,3.67
2018-05-09T08:14:48.753Z,3.72
2018-05-09T08:17:17.038Z,3.53
2018-05-09T08:19:45.303Z,3.72
2018-05-09T08:22:13.541Z,3.33
2018-05-09T08:24:41.049Z,10.43
2018-05-09T08:27:09.308Z,3.55
2018-05-09T08:29:38.446Z,3.50
2018-05-09T08:32:05.922Z,3.25
2018-05-09T08:34:33.416Z,3.60
2018-05-09T08:37:01.664Z,3.65
2018-05-09T08:39:29.171Z,3.60
2018-05-09T08:41:56.755Z,3.87
2018-05-09T08:44:24.261Z,4.62
2018-05-09T08:46:52.525Z,4.00
2018-05-09T08:49:20.079Z,3.55
2018-05-09T08:51:47.588Z,3.70
2018-05-09T08:54:15.104Z,3.37
2018-05-09T08:56:43.376Z,3.42
2018-05-09T08:59:10.893Z,4.00
2018-05-09T09:01:38.374Z,3.30
2018-05-09T09:04:05.867Z,3.85
2018-05-09T09:06:34.254Z,3.30
2018-05-09T09:09:01.633Z,3.85
2018-05-09T09:11:29.129Z,3.70
2018-05-09T09:13:56.644Z,3.90
2018-05-09T09:16:24.132Z,3.85
2018-05-09T09:18:51.695Z,4.47
2018-05-09T09:21:20.147Z,4.45
2018-05-09T09:23:47.687Z,4.45
2018-05-09T09:26:15.163Z,3.92
2018-05-09T09:28:42.799Z,4.70
2018-05-09T09:31:10.283Z,4.07
2018-05-09T09:33:37.784Z,3.75
2018-05-09T09:36:06.010Z,3.75
2018-05-09T09:38:33.498Z,3.62
2018-05-09T09:41:01.739Z,3.75
2018-05-09T09:43:29.206Z,4.82
2018-05-09T09:45:56.669Z,3.80
2018-05-09T09:48:24.922Z,4.20
2018-05-09T09:50:52.393Z,4.10
2018-05-09T09:53:19.891Z,4.18
2018-05-09T09:55:47.475Z,3.78
2018-05-09T09:58:14.967Z,4.15
2018-05-09T10:00:42.428Z,3.95
2018-05-09T10:03:10.668Z,4.45
2018-05-09T10:05:38.137Z,4.03
2018-05-09T10:08:05.675Z,4.47
2018-05-09T10:10:33.364Z,5.40
2018-05-09T10:13:00.831Z,4.53
2018-05-09T10:15:28.320Z,4.12
2018-05-09T10:17:56.563Z,3.97
2018-05-09T10:20:24.052Z,3.95
2018-05-09T10:22:52.303Z,3.97
2018-05-09T10:25:19.844Z,3.35
2018-05-09T10:27:47.334Z,3.20
2018-05-09T10:30:15.584Z,3.62
2018-05-09T10:32:43.837Z,3.42
2018-05-09T10:35:11.338Z,3.58
2018-05-09T10:37:39.616Z,3.15
2018-05-09T10:40:07.898Z,3.10
2018-05-09T10:42:35.398Z,3.03
2018-05-09T10:45:02.985Z,3.42
2018-05-09T10:47:31.433Z,3.30
2018-05-09T10:49:58.893Z,3.33
2018-05-09T10:52:26.357Z,3.40
2018-05-09T10:54:53.848Z,3.28
2018-05-09T10:57:21.573Z,3.10
2018-05-09T10:59:49.061Z,3.60
2018-05-09T11:02:17.468Z,3.47
2018-05-09T11:04:45.033Z,3.55
2018-05-09T11:07:12.588Z,3.70
2018-05-09T11:09:40.045Z,3.80
2018-05-09T11:12:09.819Z,3.70
2018-05-09T11:14:37.776Z,3.73
2018-05-09T11:17:05.493Z,3.53
2018-05-09T11:19:32.962Z,3.60
2018-05-09T11:22:00.476Z,3.33
2018-05-09T11:24:29.231Z,3.50
2018-05-09T11:26:56.969Z,3.70
2018-05-09T11:29:24.514Z,3.43
2018-05-09T11:31:52.014Z,3.70
2018-05-09T11:34:19.477Z,4.20
2018-05-09T11:36:47.780Z,3.77
2018-05-09T11:39:15.451Z,3.50
2018-05-09T11:41:42.937Z,3.53
2018-05-09T11:44:10.425Z,3.30
2018-05-09T11:46:37.896Z,3.23
2018-05-09T11:49:06.168Z,3.10
2018-05-09T11:51:34.389Z,3.23
2018-05-09T11:54:01.869Z,2.90
2018-05-09T11:56:29.331Z,3.73
2018-05-09T11:58:56.797Z,5.93
2018-05-09T12:01:24.266Z,3.60
2018-05-09T12:03:52.609Z,4.00
2018-05-09T12:06:20.226Z,3.73
2018-05-09T12:08:47.757Z,3.57
2018-05-09T12:11:16.166Z,4.07
2018-05-09T12:13:44.347Z,3.60
2018-05-09T12:16:11.830Z,3.30
2018-05-09T12:18:39.367Z,3.63
2018-05-09T12:21:06.858Z,3.50
2018-05-09T12:23:34.320Z,3.33
2018-05-09T12:26:03.570Z,3.40
2018-05-09T12:28:31.074Z,3.00
2018-05-09T12:30:58.574Z,2.87
2018-05-09T12:33:26.039Z,3.33
2018-05-09T12:35:53.549Z,3.30
2018-05-09T12:38:21.903Z,3.40
2018-05-09T12:40:49.550Z,3.73
2018-05-09T12:43:17.381Z,2.60
2018-05-09T12:45:44.881Z,3.30
2018-05-09T12:48:12.453Z,3.40
2018-05-09T12:50:40.027Z,3.50
2018-05-09T12:53:08.261Z,3.17
2018-05-09T12:55:35.766Z,3.40
2018-05-09T12:58:04.036Z,3.20
2018-05-09T13:00:32.317Z,3.90
2018-05-09T13:03:01.622Z,3.63
2018-05-09T13:05:29.115Z,3.17
2018-05-09T13:07:56.591Z,3.60
2018-05-09T13:10:24.064Z,3.30
2018-05-09T13:12:51.618Z,4.20
2018-05-09T13:15:19.848Z,3.67
2018-05-09T13:17:47.356Z,3.40
2018-05-09T13:20:14.814Z,3.50
2018-05-09T13:22:43.092Z,3.30
2018-05-09T13:25:11.315Z,3.50
2018-05-09T13:27:38.806Z,3.17
2018-05-09T13:30:06.292Z,3.67
2018-05-09T13:32:34.801Z,3.70
2018-05-09T13:35:02.324Z,3.50
2018-05-09T13:37:30.569Z,3.33
2018-05-09T13:39:58.159Z,3.47
2018-05-09T13:42:25.600Z,3.80
2018-05-09T13:44:53.971Z,3.60
2018-05-09T13:47:21.603Z,3.73
2018-05-09T13:49:49.079Z,3.63
2018-05-09T13:52:17.325Z,3.20
2018-05-09T13:54:45.522Z,3.80
2018-05-09T13:57:13.003Z,3.17
2018-05-09T13:59:41.448Z,4.03
2018-05-09T14:02:08.960Z,4.10
2018-05-09T14:04:36.455Z,3.77
2018-05-09T14:07:03.917Z,3.67
2018-05-09T14:09:31.422Z,3.23
2018-05-09T14:11:58.993Z,3.47
2018-05-09T14:14:26.494Z,3.53
2018-05-09T14:16:53.982Z,3.20
2018-05-09T14:19:22.280Z,3.30
2018-05-09T14:21:49.754Z,3.40
2018-05-09T14:24:17.249Z,3.80
2018-05-09T14:26:44.722Z,3.30
2018-05-09T14:29:12.972Z,3.90
2018-05-09T14:31:40.462Z,3.40
2018-05-09T14:34:07.959Z,3.40
2018-05-09T14:36:35.602Z,3.10
2018-05-09T14:39:03.179Z,3.50
2018-05-09T14:41:30.685Z,3.50
2018-05-09T14:43:58.931Z,3.40
2018-05-09T14:46:26.494Z,3.90
2018-05-09T14:49:03.950Z,3.30
2018-05-09T14:51:31.832Z,4.00
2018-05-09T14:54:00.142Z,3.57
2018-05-09T14:56:28.368Z,3.70
2018-05-09T14:58:55.840Z,3.97
2018-05-09T15:01:23.353Z,3.97
2018-05-09T15:03:51.001Z,3.97
2018-05-09T15:06:19.274Z,3.70
2018-05-09T15:08:46.760Z,3.53
2018-05-09T15:11:14.328Z,4.20
2018-05-09T15:13:41.843Z,3.20
2018-05-09T15:16:10.118Z,3.67
2018-05-09T15:18:38.461Z,3.97
2018-05-09T15:21:05.955Z,3.53
2018-05-09T15:23:34.186Z,3.60
2018-05-09T15:26:01.642Z,3.70
2018-05-09T15:28:29.154Z,3.50
2018-05-09T15:30:56.637Z,3.87
2018-05-09T15:33:24.153Z,3.50
2018-05-09T15:35:52.505Z,4.03
2018-05-09T15:38:19.998Z,3.40
2018-05-09T15:40:47.534Z,3.93
2018-05-09T15:43:15.895Z,3.47
2018-05-09T15:45:44.931Z,3.67
2018-05-09T15:48:14.638Z,3.43
2018-05-09T15:50:42.102Z,3.57
2018-05-09T15:53:09.861Z,3.33
2018-05-09T15:55:37.342Z,3.97
2018-05-09T15:58:06.014Z,3.50
2018-05-09T16:00:34.675Z,3.70
2018-05-09T16:03:02.154Z,3.60
2018-05-09T16:05:29.638Z,3.50
2018-05-09T16:07:57.109Z,3.93
2018-05-09T16:10:24.685Z,4.07
2018-05-09T16:12:52.174Z,4.00
2018-05-09T16:15:19.668Z,3.60
2018-05-09T16:17:47.147Z,4.07
2018-05-09T16:20:15.449Z,3.63
2018-05-09T16:22:43.095Z,3.90
2018-05-09T16:25:10.795Z,4.10
2018-05-09T16:27:38.274Z,3.90
2018-05-09T16:30:05.825Z,3.70
2018-05-09T16:32:33.555Z,3.83
2018-05-09T16:35:01.115Z,4.17
2018-05-09T16:37:29.183Z,4.33
2018-05-09T16:39:56.681Z,3.67
2018-05-09T16:42:24.242Z,3.90
2018-05-09T16:44:51.707Z,3.90
2018-05-09T16:47:20.957Z,4.30
2018-05-09T16:49:48.479Z,4.57
2018-05-09T16:52:16.760Z,4.50
2018-05-09T16:54:45.020Z,4.00
2018-05-09T16:57:13.280Z,4.00
2018-05-09T16:59:40.789Z,3.90
2018-05-09T17:02:08.324Z,3.77
2018-05-09T17:04:35.827Z,3.70
2018-05-09T17:07:03.391Z,4.90
2018-05-09T17:09:31.089Z,3.70
2018-05-09T17:11:59.382Z,3.43
2018-05-09T17:14:26.874Z,3.80
2018-05-09T17:16:54.484Z,3.80
2018-05-09T17:19:22.715Z,4.27
2018-05-09T17:22:07.795Z,4.13
2018-05-09T17:24:35.277Z,3.90
2018-05-09T17:27:03.529Z,4.53
2018-05-09T17:29:31.000Z,5.37
2018-05-09T17:31:59.270Z,3.50
2018-05-09T17:34:26.755Z,3.87
2018-05-09T17:36:54.325Z,4.23
2018-05-09T17:39:22.537Z,3.60
2018-05-09T17:41:50.043Z,4.20
2018-05-09T17:44:17.522Z,4.43
2018-05-09T17:46:45.027Z,4.50
2018-05-09T17:49:12.522Z,4.43
2018-05-09T17:51:40.042Z,4.20
2018-05-09T17:54:07.523Z,4.43
2018-05-09T17:56:35.026Z,4.13
2018-05-09T17:59:02.732Z,3.80
2018-05-09T18:01:30.982Z,3.77
2018-05-09T18:03:58.544Z,4.63
2018-05-09T18:06:25.954Z,5.27
2018-05-09T18:08:53.429Z,6.30
2018-05-09T18:11:20.902Z,8.83
2018-05-09T18:13:48.375Z,18.27
2018-05-09T18:16:16.629Z,16.13
2018-05-09T18:18:44.106Z,17.53
2018-05-09T18:21:12.513Z,13.23
2018-05-09T18:23:39.973Z,8.90
2018-05-09T18:26:07.475Z,5.63
2018-05-09T18:28:34.936Z,5.83
2018-05-09T18:31:02.444Z,4.47
2018-05-09T18:33:29.990Z,5.10
2018-05-09T18:35:57.407Z,5.30
2018-05-09T18:38:24.879Z,4.23
2018-05-09T18:40:53.142Z,4.60
2018-05-09T18:43:20.612Z,4.60
2018-05-09T18:45:48.879Z,4.83
2018-05-09T18:48:16.924Z,4.60
2018-05-09T18:50:44.781Z,5.57
2018-05-09T18:53:12.347Z,5.63
2018-05-09T18:55:39.862Z,5.20
2018-05-09T18:58:07.429Z,5.27
2018-05-09T19:00:34.956Z,4.87
2018-05-09T19:03:03.394Z,4.87
2018-05-09T19:05:30.868Z,5.30
2018-05-09T19:07:58.375Z,4.47
2018-05-09T19:10:25.842Z,4.47
2018-05-09T19:12:54.706Z,5.80
2018-05-09T19:15:22.946Z,5.80
2018-05-09T19:17:50.441Z,5.97
2018-05-09T19:20:17.921Z,5.30
2018-05-09T19:22:45.433Z,4.40
2018-05-09T19:25:13.670Z,5.57
2018-05-09T19:27:42.032Z,5.43
2018-05-09T19:30:09.588Z,5.47
2018-05-09T19:32:43.697Z,5.30
2018-05-09T19:35:11.154Z,5.63
2018-05-09T19:37:38.643Z,5.77
2018-05-09T19:40:06.127Z,6.13
2018-05-09T19:42:35.301Z,6.40
2018-05-09T19:45:02.771Z,5.93
2018-05-09T19:47:31.014Z,5.47
2018-05-09T19:49:58.521Z,5.70
2018-05-09T19:52:26.124Z,5.63
2018-05-09T19:54:53.655Z,5.03
2018-05-09T19:57:21.139Z,6.00
2018-05-09T19:59:48.622Z,5.70
2018-05-09T20:02:16.114Z,4.70
2018-05-09T20:04:43.604Z,4.83
2018-05-09T20:07:11.077Z,5.10
2018-05-09T20:09:38.587Z,5.27
2018-05-09T20:12:06.862Z,5.17
2018-05-09T20:14:34.352Z,4.63
2018-05-09T20:17:01.829Z,5.63
2018-05-09T20:19:29.433Z,5.63
2018-05-09T20:21:56.918Z,6.43
2018-05-09T20:24:24.456Z,5.40
2018-05-09T20:26:52.104Z,6.00
2018-05-09T20:29:19.590Z,6.70
2018-05-09T20:31:59.292Z,5.63
2018-05-09T20:34:26.805Z,5.63
2018-05-09T20:36:54.310Z,6.13
2018-05-09T20:39:21.914Z,5.90
2018-05-09T20:41:49.433Z,7.57
2018-05-09T20:44:16.919Z,5.67
2018-05-09T20:46:44.423Z,7.00
2018-05-09T20:49:12.665Z,6.33
2018-05-09T20:51:50.655Z,6.60
2018-05-09T20:54:18.142Z,6.30
2018-05-09T20:56:46.410Z,6.90
2018-05-09T20:59:14.072Z,6.97
2018-05-09T21:01:47.504Z,6.47
2018-05-09T21:04:15.722Z,7.60
2018-05-09T21:06:43.512Z,7.10
2018-05-09T21:09:11.972Z,8.00
2018-05-09T21:11:39.501Z,8.30
2018-05-09T21:14:07.062Z,9.30
2018-05-09T21:16:34.530Z,10.57
2018-05-09T21:19:02.004Z,11.87
2018-05-09T21:21:29.659Z,13.07
2018-05-09T21:23:58.627Z,15.07
2018-05-09T21:26:26.147Z,17.77
2018-05-09T21:28:55.010Z,16.83
2018-05-09T21:31:22.550Z,17.33
2018-05-09T21:33:50.053Z,19.73
2018-05-09T21:36:17.547Z,18.27
2018-05-09T21:38:45.060Z,18.53
2018-05-09T21:41:12.844Z,18.07
2018-05-09T21:43:40.335Z,18.53
2018-05-09T21:46:07.865Z,18.87
2018-05-09T21:48:35.344Z,18.77
2018-05-09T21:51:02.931Z,18.63
2018-05-09T21:53:30.425Z,18.83
2018-05-09T21:55:57.948Z,20.67
2018-05-09T21:58:25.457Z,20.00
2018-05-09T22:00:53.064Z,19.10
2018-05-09T22:03:21.340Z,20.47
2018-05-09T22:05:49.685Z,18.47
2018-05-09T22:08:17.400Z,20.13
2018-05-09T22:10:44.978Z,20.03
2018-05-09T22:13:12.473Z,20.13
2018-05-09T22:15:39.973Z,21.70
2018-05-09T22:18:07.492Z,20.90
2018-05-09T22:20:37.887Z,22.13
2018-05-09T22:23:05.430Z,21.57
2018-05-09T22:25:33.673Z,20.20
2018-05-09T22:28:01.903Z,20.13
2018-05-09T22:30:29.585Z,21.03
2018-05-09T22:32:57.122Z,21.13
2018-05-09T22:35:24.773Z,23.30
2018-05-09T22:37:52.316Z,22.70
2018-05-09T22:40:19.872Z,23.43
2018-05-09T22:42:47.343Z,25.00
2018-05-09T22:45:14.841Z,24.50
2018-05-09T22:47:43.082Z,24.90
2018-05-09T22:50:10.810Z,26.47
2018-05-09T22:52:38.282Z,25.23
2018-05-09T22:55:05.754Z,26.60
2018-05-09T22:57:33.234Z,25.63
2018-05-09T23:00:00.734Z,26.90
2018-05-09T23:02:28.222Z,26.60
2018-05-09T23:04:55.871Z,26.23
2018-05-09T23:07:23.365Z,27.57
2018-05-09T23:09:52.465Z,29.17
2018-05-09T23:12:20.708Z,30.53
2018-05-09T23:14:48.193Z,29.57
2018-05-09T23:17:15.749Z,29.57
2018-05-09T23:19:43.244Z,29.20
2018-05-09T23:22:10.790Z,29.83
2018-05-09T23:24:38.281Z,32.87
2018-05-09T23:27:05.798Z,33.27
2018-05-09T23:29:34.037Z,34.47
2018-05-09T23:32:01.555Z,36.07
2018-05-09T23:34:29.068Z,37.03
2018-05-09T23:36:56.571Z,32.30
2018-05-09T23:39:24.106Z,31.83
2018-05-09T23:41:52.313Z,32.70
2018-05-09T23:44:19.834Z,31.17
2018-05-09T23:46:48.066Z,31.73
2018-05-09T23:49:15.554Z,31.37
2018-05-09T23:51:43.790Z,32.40
2018-05-09T23:54:11.289Z,33.87
2018-05-09T23:56:39.529Z,34.47
2018-05-09T23:59:06.997Z,35.17
